Douradina, Brazil
Current Conditions -  °F | °C
As of 6:00 AM on Sunday 23 Nov 2014 (Local Time) from SBMG Reporting Station
Light Fog Light Fog  
Wind Chill: 68°   Ceiling: 1000
Heat Index: 68°   Visibility: 6mi
Dew Point: 68°   Wind: 2mph
Humidity: 100%   Direction: 10°N
Pressure: 29.91"   Gusts: NA
Location:  23.38°S, 53.29°W
Report Text: SBMG 230800Z 01002KT 9000 BCFG FEW005 BKN010 20/20 Q1013
Loading
Personal Weather Stations






























Interactive Weather Map New forecast layout! Learn more

10-Day Weather Forecast

Advertisements
Track Severe Weather on mobile